createdAt,value
2023-05-16T00:01:48.767Z,96415.38
2023-05-16T00:04:15.602Z,96410.09
2023-05-16T00:06:42.227Z,96408.84
2023-05-16T00:09:08.938Z,96408.31
2023-05-16T00:11:35.471Z,96412.69
2023-05-16T00:14:03.110Z,96404.84
2023-05-16T00:16:30.277Z,96412.47
2023-05-16T00:19:00.954Z,96408.13
2023-05-16T00:21:28.078Z,96412.03
2023-05-16T00:23:54.740Z,96421.19
2023-05-16T00:26:21.712Z,96415.97
2023-05-16T00:28:48.321Z,96412.97
2023-05-16T00:31:14.769Z,96408.31
2023-05-16T00:33:41.230Z,96421.19
2023-05-16T00:36:08.056Z,96421.25
2023-05-16T00:38:34.654Z,96428.41
2023-05-16T00:41:02.220Z,96430.44
2023-05-16T00:43:28.931Z,96434.91
2023-05-16T00:45:55.596Z,96429.91
2023-05-16T00:48:22.072Z,96430.66
2023-05-16T00:50:49.468Z,96431.88
2023-05-16T00:53:16.779Z,96426.53
2023-05-16T00:55:43.937Z,96431.66
2023-05-16T00:58:12.057Z,96424.78
2023-05-16T01:00:38.707Z,96419.25
2023-05-16T01:03:06.361Z,96416.97
2023-05-16T01:05:33.386Z,96420.50
2023-05-16T01:07:59.891Z,96417.81
2023-05-16T01:10:36.552Z,96418.72
2023-05-16T01:13:27.726Z,96412.81
2023-05-16T01:16:09.860Z,96405.72
2023-05-16T01:18:45.766Z,96413.50
2023-05-16T01:21:35.855Z,96416.94
2023-05-16T01:24:33.181Z,96407.13
2023-05-16T01:27:00.298Z,96417.56
2023-05-16T01:29:26.864Z,96414.88
2023-05-16T01:31:53.507Z,96410.44
2023-05-16T01:34:20.050Z,96406.38
2023-05-16T01:36:57.232Z,96410.63
2023-05-16T01:39:44.336Z,96413.16
2023-05-16T01:42:15.900Z,96410.63
2023-05-16T01:44:46.759Z,96400.47
2023-05-16T01:47:14.900Z,96413.50
2023-05-16T01:49:46.155Z,96418.97
2023-05-16T01:52:19.812Z,96411.25
2023-05-16T01:54:48.355Z,96418.69
2023-05-16T01:57:16.083Z,96424.09
2023-05-16T01:59:44.541Z,96425.97
2023-05-16T02:02:11.236Z,96429.50
2023-05-16T02:04:37.701Z,96431.25
2023-05-16T02:07:04.607Z,96428.53
2023-05-16T02:09:31.320Z,96443.09
2023-05-16T02:11:57.772Z,96451.59
2023-05-16T02:14:25.846Z,96443.34
2023-05-16T02:16:52.465Z,96451.97
2023-05-16T02:19:19.165Z,96437.97
2023-05-16T02:21:45.689Z,96449.38
2023-05-16T02:24:12.421Z,96439.28
2023-05-16T02:26:38.943Z,96437.38
2023-05-16T02:29:06.043Z,96428.88
2023-05-16T02:31:34.077Z,96433.72
2023-05-16T02:34:01.390Z,96429.28
2023-05-16T02:36:28.087Z,96421.31
2023-05-16T02:38:54.680Z,96421.44
2023-05-16T02:41:22.278Z,96427.03
2023-05-16T02:43:49.281Z,96430.50
2023-05-16T02:46:27.417Z,96429.66
2023-05-16T02:48:54.476Z,96434.19
2023-05-16T02:51:22.704Z,96436.88
2023-05-16T02:53:49.436Z,96438.91
2023-05-16T02:56:16.312Z,96437.75
2023-05-16T02:58:43.357Z,96434.53
2023-05-16T03:01:09.960Z,96430.91
2023-05-16T03:03:37.575Z,96439.66
2023-05-16T03:06:04.381Z,96439.59
2023-05-16T03:08:30.905Z,96446.75
2023-05-16T03:10:57.429Z,96464.78
2023-05-16T03:13:24.196Z,96449.03
2023-05-16T03:15:50.926Z,96458.25
2023-05-16T03:18:17.404Z,96462.03
2023-05-16T03:20:44.027Z,96454.63
2023-05-16T03:23:10.801Z,96460.31
2023-05-16T03:25:38.221Z,96446.47
2023-05-16T03:28:06.084Z,96447.34
2023-05-16T03:30:32.660Z,96456.69
2023-05-16T03:32:59.175Z,96445.41
2023-05-16T03:35:26.033Z,96454.97
2023-05-16T03:37:52.819Z,96452.94
2023-05-16T03:40:19.463Z,96448.88
2023-05-16T03:42:45.941Z,96460.34
2023-05-16T03:45:12.902Z,96463.81
2023-05-16T03:47:39.536Z,96460.34
2023-05-16T03:50:07.700Z,96453.69
2023-05-16T03:52:34.276Z,96466.75
2023-05-16T03:55:01.988Z,96453.94
2023-05-16T03:57:31.664Z,96452.31
2023-05-16T03:59:58.350Z,96451.25
2023-05-16T04:02:25.005Z,96465.09
2023-05-16T04:04:51.550Z,96467.28
2023-05-16T04:07:18.046Z,96466.34
2023-05-16T04:09:44.696Z,96483.44
2023-05-16T04:12:11.125Z,96476.91
2023-05-16T04:14:38.267Z,96490.34
2023-05-16T04:17:05.217Z,96494.19
2023-05-16T04:19:31.824Z,96481.88
2023-05-16T04:21:58.292Z,96484.38
2023-05-16T04:24:26.639Z,96491.88
2023-05-16T04:26:53.130Z,96490.03
2023-05-16T04:29:19.695Z,96485.47
2023-05-16T04:31:46.189Z,96485.22
2023-05-16T04:34:13.238Z,96485.84
2023-05-16T04:36:40.384Z,96479.09
2023-05-16T04:39:07.523Z,96485.91
2023-05-16T04:41:35.163Z,96480.28
2023-05-16T04:44:04.256Z,96471.94
2023-05-16T04:46:31.356Z,96473.50
2023-05-16T04:48:57.896Z,96474.25
2023-05-16T04:51:24.530Z,96474.09
2023-05-16T04:53:51.007Z,96480.81
2023-05-16T04:56:17.808Z,96483.75
2023-05-16T04:58:44.294Z,96472.44
2023-05-16T05:01:10.961Z,96472.19
2023-05-16T05:03:37.638Z,96478.13
2023-05-16T05:06:04.531Z,96472.72
2023-05-16T05:08:31.039Z,96476.47
2023-05-16T05:10:57.591Z,96476.66
2023-05-16T05:13:24.249Z,96475.38
2023-05-16T05:15:52.347Z,96483.47
2023-05-16T05:18:18.968Z,96479.41
2023-05-16T05:20:46.593Z,96468.03
2023-05-16T05:23:13.125Z,96478.63
2023-05-16T05:25:39.898Z,96472.13
2023-05-16T05:28:06.502Z,96472.28
2023-05-16T05:30:33.025Z,96486.66
2023-05-16T05:32:59.543Z,96479.16
2023-05-16T05:35:27.226Z,96489.19
2023-05-16T05:37:53.853Z,96487.47
2023-05-16T05:40:20.320Z,96493.19
2023-05-16T05:42:47.371Z,96479.41
2023-05-16T05:45:15.946Z,96496.28
2023-05-16T05:47:43.124Z,96498.91
2023-05-16T05:50:11.527Z,96490.06
2023-05-16T05:52:38.621Z,96487.19
2023-05-16T05:55:05.739Z,96476.56
2023-05-16T05:57:32.417Z,96477.41
2023-05-16T06:00:02.092Z,96481.56
2023-05-16T06:02:29.288Z,96477.31
2023-05-16T06:04:56.046Z,96478.59
2023-05-16T06:07:22.630Z,96485.34
2023-05-16T06:09:49.105Z,96484.41
2023-05-16T06:12:15.779Z,96483.81
2023-05-16T06:14:42.226Z,96473.78
2023-05-16T06:17:08.840Z,96475.84
2023-05-16T06:19:35.432Z,96470.19
2023-05-16T06:22:01.941Z,96471.34
2023-05-16T06:24:29.846Z,96475.16
2023-05-16T06:26:56.337Z,96463.91
2023-05-16T06:29:23.297Z,96477.09
2023-05-16T06:31:49.893Z,96477.06
2023-05-16T06:34:16.404Z,96483.00
2023-05-16T06:36:44.275Z,96493.41
2023-05-16T06:39:10.757Z,96482.53
2023-05-16T06:41:37.293Z,96487.81
2023-05-16T06:44:05.105Z,96488.50
2023-05-16T06:46:31.989Z,96484.63
2023-05-16T06:48:58.540Z,96484.50
2023-05-16T06:51:25.064Z,96487.94
2023-05-16T06:53:51.555Z,96487.13
2023-05-16T06:56:18.061Z,96491.56
2023-05-16T06:58:44.650Z,96488.25
2023-05-16T07:01:16.209Z,96484.31
2023-05-16T07:03:42.849Z,96484.06
2023-05-16T07:06:09.394Z,96475.03
2023-05-16T07:08:37.079Z,96488.44
2023-05-16T07:11:03.604Z,96478.63
2023-05-16T07:13:30.124Z,96488.34
2023-05-16T07:15:56.680Z,96480.91
2023-05-16T07:18:23.738Z,96484.34
2023-05-16T07:20:51.042Z,96488.72
2023-05-16T07:23:17.601Z,96481.41
2023-05-16T07:25:44.271Z,96485.63
2023-05-16T07:28:10.784Z,96483.75
2023-05-16T07:30:38.309Z,96477.44
2023-05-16T07:33:04.910Z,96481.88
2023-05-16T07:35:31.531Z,96473.41
2023-05-16T07:37:58.010Z,96475.84
2023-05-16T07:40:28.404Z,96481.09
2023-05-16T07:42:55.114Z,96479.47
2023-05-16T07:45:22.036Z,96476.38
2023-05-16T07:47:48.719Z,96481.53
2023-05-16T07:50:15.339Z,96488.22
2023-05-16T07:52:41.841Z,96489.09
2023-05-16T07:55:08.912Z,96504.78
2023-05-16T07:57:35.528Z,96503.34
2023-05-16T08:00:05.244Z,96499.22
2023-05-16T08:02:31.984Z,96499.09
2023-05-16T08:04:58.678Z,96502.78
2023-05-16T08:07:25.795Z,96510.03
2023-05-16T08:09:52.363Z,96511.75
2023-05-16T08:12:19.110Z,96512.09
2023-05-16T08:14:45.702Z,96512.50
2023-05-16T08:17:12.238Z,96517.22
2023-05-16T08:19:39.356Z,96517.69
2023-05-16T08:22:07.880Z,96498.06
2023-05-16T08:24:34.848Z,96492.22
2023-05-16T08:27:01.596Z,96490.28
2023-05-16T08:29:28.386Z,96502.75
2023-05-16T08:31:55.047Z,96511.66
2023-05-16T08:34:22.666Z,96503.47
2023-05-16T08:36:49.224Z,96509.13
2023-05-16T08:39:15.873Z,96501.13
2023-05-16T08:41:42.547Z,96500.59
2023-05-16T08:44:11.063Z,96492.38
2023-05-16T08:46:41.551Z,96507.41
2023-05-16T08:49:08.881Z,96485.91
2023-05-16T08:51:37.543Z,96500.59
2023-05-16T08:54:10.411Z,96496.69
2023-05-16T08:56:38.279Z,96510.28
2023-05-16T08:59:05.711Z,96511.09
2023-05-16T09:01:32.776Z,96513.72
2023-05-16T09:04:00.529Z,96515.38
2023-05-16T09:06:28.056Z,96518.88
2023-05-16T09:08:55.116Z,96518.06
2023-05-16T09:11:21.856Z,96512.50
2023-05-16T09:13:49.387Z,96523.59
2023-05-16T09:16:18.584Z,96527.28
2023-05-16T09:18:57.260Z,96521.75
2023-05-16T09:21:29.376Z,96520.34
2023-05-16T09:23:56.393Z,96538.31
2023-05-16T09:26:22.980Z,96527.06
2023-05-16T09:28:55.906Z,96529.50
2023-05-16T09:31:27.790Z,96518.56
2023-05-16T09:33:56.734Z,96518.50
2023-05-16T09:36:23.461Z,96505.25
2023-05-16T09:38:53.409Z,96512.31
2023-05-16T09:41:22.096Z,96504.97
2023-05-16T09:43:48.742Z,96502.09
2023-05-16T09:46:15.837Z,96485.38
2023-05-16T09:48:46.377Z,96486.16
2023-05-16T09:51:13.749Z,96489.72
2023-05-16T09:53:41.899Z,96494.03
2023-05-16T09:56:10.986Z,96489.88
2023-05-16T09:58:40.134Z,96483.59
2023-05-16T10:01:07.895Z,96495.88
2023-05-16T10:03:36.655Z,96485.69
2023-05-16T10:06:04.436Z,96481.44
2023-05-16T10:08:36.193Z,96496.88
2023-05-16T10:11:05.085Z,96493.81
2023-05-16T10:13:34.445Z,96488.59
2023-05-16T10:16:08.519Z,96485.34
2023-05-16T10:18:36.459Z,96468.13
2023-05-16T10:21:10.434Z,96476.44
2023-05-16T10:23:42.188Z,96480.88
2023-05-16T10:26:09.385Z,96475.03
2023-05-16T10:28:36.525Z,96486.81
2023-05-16T10:31:03.292Z,96486.00
2023-05-16T10:33:30.203Z,96473.19
2023-05-16T10:35:57.104Z,96474.78
2023-05-16T10:38:24.712Z,96478.69
2023-05-16T10:40:51.618Z,96482.91
2023-05-16T10:43:26.789Z,96481.81
2023-05-16T10:46:10.818Z,96465.78
2023-05-16T10:48:40.310Z,96463.00
2023-05-16T10:51:38.772Z,96465.53
2023-05-16T10:54:08.746Z,96467.94
2023-05-16T10:56:35.641Z,96454.31
2023-05-16T10:59:02.394Z,96457.38
2023-05-16T11:01:31.965Z,96454.75
2023-05-16T11:04:04.760Z,96470.22
2023-05-16T11:06:35.337Z,96457.09
2023-05-16T11:09:14.013Z,96463.63
2023-05-16T11:11:48.526Z,96466.75
2023-05-16T11:14:34.055Z,96469.53
2023-05-16T11:17:11.244Z,96474.75
2023-05-16T11:19:44.796Z,96475.16
2023-05-16T11:22:17.860Z,96473.41
2023-05-16T11:24:53.160Z,96471.97
2023-05-16T11:27:46.439Z,96481.25
2023-05-16T11:30:14.166Z,96481.56
2023-05-16T11:32:42.631Z,96488.72
2023-05-16T11:35:14.497Z,96491.22
2023-05-16T11:37:42.552Z,96493.69
2023-05-16T11:40:12.256Z,96481.19
2023-05-16T11:42:40.211Z,96485.84
2023-05-16T11:45:17.969Z,96467.75
2023-05-16T11:47:47.432Z,96484.00
2023-05-16T11:50:20.998Z,96468.13
2023-05-16T11:52:53.568Z,96477.47
2023-05-16T11:55:40.278Z,96463.72
2023-05-16T11:58:08.296Z,96486.31
2023-05-16T12:00:34.935Z,96473.19
2023-05-16T12:03:04.581Z,96484.00
2023-05-16T12:05:32.873Z,96483.47
2023-05-16T12:08:00.069Z,96488.56
2023-05-16T12:10:27.083Z,96490.38
2023-05-16T12:12:54.885Z,96489.56
2023-05-16T12:15:21.700Z,96500.31
2023-05-16T12:17:48.801Z,96498.16
2023-05-16T12:20:16.512Z,96521.06
2023-05-16T12:22:44.753Z,96517.38
2023-05-16T12:25:30.742Z,96509.50
2023-05-16T12:28:01.984Z,96514.84
2023-05-16T12:30:30.620Z,96529.81
2023-05-16T12:32:58.500Z,96534.09
2023-05-16T12:35:33.847Z,96535.97
2023-05-16T12:38:04.644Z,96540.78
2023-05-16T12:40:31.416Z,96547.44
2023-05-16T12:42:58.322Z,96545.78
2023-05-16T12:45:27.343Z,96545.13
2023-05-16T12:47:54.114Z,96544.06
2023-05-16T12:50:20.801Z,96537.69
2023-05-16T12:52:51.588Z,96544.50
2023-05-16T12:55:19.689Z,96543.25
2023-05-16T12:57:47.935Z,96541.19
2023-05-16T13:00:16.441Z,96554.38
2023-05-16T13:02:43.053Z,96556.00
2023-05-16T13:05:10.406Z,96552.50
2023-05-16T13:07:39.660Z,96551.13
2023-05-16T13:10:10.797Z,96572.41
2023-05-16T13:12:39.143Z,96569.56
2023-05-16T13:15:10.706Z,96580.69
2023-05-16T13:17:39.838Z,96576.88
2023-05-16T13:20:13.469Z,96584.19
2023-05-16T13:22:41.302Z,96572.25
2023-05-16T13:25:08.894Z,96587.06
2023-05-16T13:27:35.863Z,96589.78
2023-05-16T13:30:04.221Z,96581.13
2023-05-16T13:32:30.770Z,96584.38
2023-05-16T13:34:57.349Z,96584.84
2023-05-16T13:37:24.555Z,96582.50
2023-05-16T13:39:51.228Z,96600.69
2023-05-16T13:42:18.426Z,96598.56
2023-05-16T13:44:45.024Z,96604.44
2023-05-16T13:47:11.891Z,96602.56
2023-05-16T13:49:39.002Z,96608.75
2023-05-16T13:52:06.405Z,96606.44
2023-05-16T13:54:33.758Z,96604.72
2023-05-16T13:57:01.636Z,96610.69
2023-05-16T13:59:56.244Z,96615.13
2023-05-16T14:02:15.035Z,96616.22
2023-05-16T14:04:41.645Z,96606.44
2023-05-16T14:07:08.168Z,96617.47
2023-05-16T14:09:35.284Z,96620.63
2023-05-16T14:12:03.029Z,96628.88
2023-05-16T14:14:29.582Z,96622.13
2023-05-16T14:16:56.091Z,96622.38
2023-05-16T14:19:22.810Z,96618.72
2023-05-16T14:21:49.424Z,96637.09
2023-05-16T14:24:16.013Z,96635.97
2023-05-16T14:26:42.515Z,96628.53
2023-05-16T14:29:09.086Z,96631.59
2023-05-16T14:31:38.248Z,96622.38
2023-05-16T14:34:04.999Z,96624.47
2023-05-16T14:36:33.005Z,96626.56
2023-05-16T14:39:04.231Z,96622.41
2023-05-16T14:41:30.904Z,96640.03
2023-05-16T14:43:57.403Z,96639.00
2023-05-16T14:46:24.007Z,96624.28
2023-05-16T14:48:51.163Z,96641.47
2023-05-16T14:51:17.922Z,96638.44
2023-05-16T14:53:46.782Z,96629.25
2023-05-16T14:56:13.739Z,96640.09
2023-05-16T14:58:40.698Z,96637.38
2023-05-16T15:01:07.204Z,96639.13
2023-05-16T15:03:46.908Z,96654.81
2023-05-16T15:06:20.800Z,96647.53
2023-05-16T15:08:47.267Z,96645.50
2023-05-16T15:11:13.761Z,96646.44
2023-05-16T15:13:40.394Z,96645.56
2023-05-16T15:16:07.849Z,96641.47
2023-05-16T15:18:34.618Z,96647.19
2023-05-16T15:21:01.155Z,96656.91
2023-05-16T15:23:29.527Z,96654.25
2023-05-16T15:25:57.277Z,96661.38
2023-05-16T15:28:23.846Z,96658.25
2023-05-16T15:30:51.585Z,96657.84
2023-05-16T15:33:18.189Z,96670.06
2023-05-16T15:35:44.773Z,96662.00
2023-05-16T15:38:11.245Z,96665.25
2023-05-16T15:40:37.753Z,96670.97
2023-05-16T15:43:05.239Z,96678.91
2023-05-16T15:45:32.542Z,96677.28
2023-05-16T15:48:00.221Z,96668.72
2023-05-16T15:50:26.831Z,96684.00
2023-05-16T15:52:53.390Z,96678.47
2023-05-16T15:55:19.892Z,96692.50
2023-05-16T15:57:46.492Z,96690.69
2023-05-16T16:00:13.641Z,96694.16
2023-05-16T16:02:41.454Z,96696.41
2023-05-16T16:05:08.430Z,96700.06
2023-05-16T16:07:35.130Z,96700.25
2023-05-16T16:10:01.960Z,96695.09
2023-05-16T16:12:32.677Z,96695.72
2023-05-16T16:14:59.151Z,96683.50
2023-05-16T16:17:25.922Z,96696.13
2023-05-16T16:19:52.461Z,96697.75
2023-05-16T16:22:22.288Z,96699.56
2023-05-16T16:24:49.169Z,96707.03
2023-05-16T16:27:16.514Z,96717.63
2023-05-16T16:29:43.069Z,96711.13
2023-05-16T16:32:09.686Z,96708.72
2023-05-16T16:34:36.258Z,96718.63
2023-05-16T16:37:02.754Z,96718.97
2023-05-16T16:39:32.159Z,96725.38
2023-05-16T16:42:00.670Z,96716.38
2023-05-16T16:44:27.216Z,96734.09
2023-05-16T16:46:53.815Z,96740.00
2023-05-16T16:49:20.847Z,96739.56
2023-05-16T16:51:47.681Z,96737.63
2023-05-16T16:54:14.276Z,96747.16
2023-05-16T16:56:41.005Z,96750.16
2023-05-16T16:59:07.825Z,96761.88
2023-05-16T17:01:35.030Z,96768.03
2023-05-16T17:04:02.018Z,96773.00
2023-05-16T17:06:30.108Z,96761.28
2023-05-16T17:08:57.383Z,96770.75
2023-05-16T17:11:23.975Z,96771.22
2023-05-16T17:13:51.230Z,96789.69
2023-05-16T17:16:17.790Z,96781.00
2023-05-16T17:18:44.349Z,96786.00
2023-05-16T17:21:12.931Z,96770.16
2023-05-16T17:23:41.726Z,96781.88
2023-05-16T17:26:09.980Z,96790.78
2023-05-16T17:28:36.496Z,96791.25
2023-05-16T17:31:03.973Z,96787.06
2023-05-16T17:33:31.221Z,96814.63
2023-05-16T17:35:57.845Z,96806.94
2023-05-16T17:38:24.553Z,96808.16
2023-05-16T17:40:51.109Z,96807.00
2023-05-16T17:43:17.653Z,96817.50
2023-05-16T17:45:45.218Z,96812.75
2023-05-16T17:48:11.802Z,96808.69
2023-05-16T17:50:38.544Z,96822.91
2023-05-16T17:53:05.127Z,96810.84
2023-05-16T17:55:33.561Z,96824.88
2023-05-16T17:58:00.350Z,96811.13
2023-05-16T18:00:26.950Z,96827.59
2023-05-16T18:02:53.676Z,96821.66
2023-05-16T18:05:20.361Z,96822.63
2023-05-16T18:07:47.024Z,96820.41
2023-05-16T18:10:13.608Z,96816.25
2023-05-16T18:12:41.674Z,96824.78
2023-05-16T18:15:10.621Z,96839.38
2023-05-16T18:17:37.755Z,96828.91
2023-05-16T18:20:09.462Z,96837.78
2023-05-16T18:22:37.618Z,96828.91
2023-05-16T18:25:05.638Z,96833.56
2023-05-16T18:27:33.653Z,96830.81
2023-05-16T18:30:01.056Z,96827.38
2023-05-16T18:32:27.926Z,96826.56
2023-05-16T18:34:54.527Z,96836.09
2023-05-16T18:37:21.064Z,96833.38
2023-05-16T18:39:50.371Z,96840.59
2023-05-16T18:42:19.936Z,96844.66
2023-05-16T18:44:46.710Z,96836.59
2023-05-16T18:47:15.740Z,96845.09
2023-05-16T18:49:43.387Z,96851.03
2023-05-16T18:52:16.161Z,96830.88
2023-05-16T18:54:42.762Z,96841.78
2023-05-16T18:57:09.318Z,96865.66
2023-05-16T18:59:36.036Z,96864.19
2023-05-16T19:02:02.644Z,96870.22
2023-05-16T19:04:29.294Z,96867.50
2023-05-16T19:06:57.945Z,96870.03
2023-05-16T19:09:25.353Z,96880.03
2023-05-16T19:11:51.943Z,96874.88
2023-05-16T19:14:18.536Z,96885.25
2023-05-16T19:16:45.076Z,96886.69
2023-05-16T19:19:12.017Z,96895.88
2023-05-16T19:21:39.109Z,96883.78
2023-05-16T19:24:07.021Z,96882.69
2023-05-16T19:26:33.579Z,96889.84
2023-05-16T19:29:00.585Z,96888.50
2023-05-16T19:31:28.128Z,96887.53
2023-05-16T19:33:54.749Z,96890.00
2023-05-16T19:36:21.388Z,96896.88
2023-05-16T19:38:48.017Z,96890.16
2023-05-16T19:41:14.536Z,96891.13
2023-05-16T19:43:41.164Z,96892.94
2023-05-16T19:46:07.766Z,96891.81
2023-05-16T19:48:35.302Z,96905.31
2023-05-16T19:51:02.103Z,96894.34
2023-05-16T19:53:28.761Z,96904.38
2023-05-16T19:55:55.788Z,96893.22
2023-05-16T19:58:22.321Z,96902.63
2023-05-16T20:00:48.932Z,96902.81
2023-05-16T20:03:15.560Z,96898.97
2023-05-16T20:05:42.453Z,96900.97
2023-05-16T20:08:09.687Z,96902.25
2023-05-16T20:10:36.381Z,96913.31
2023-05-16T20:13:04.202Z,96920.59
2023-05-16T20:15:30.870Z,96920.59
2023-05-16T20:17:57.441Z,96933.84
2023-05-16T20:20:24.111Z,96923.28
2023-05-16T20:22:50.690Z,96924.78
2023-05-16T20:25:18.240Z,96917.75
2023-05-16T20:27:44.729Z,96925.97
2023-05-16T20:30:11.806Z,96922.09
2023-05-16T20:32:38.341Z,96922.56
2023-05-16T20:35:09.301Z,96928.66
2023-05-16T20:37:35.988Z,96921.59
2023-05-16T20:40:02.888Z,96918.47
2023-05-16T20:42:29.484Z,96933.44
2023-05-16T20:44:55.997Z,96931.28
2023-05-16T20:47:22.580Z,96924.41
2023-05-16T20:49:49.072Z,96934.22
2023-05-16T20:52:15.617Z,96927.72
2023-05-16T20:54:42.229Z,96927.75
2023-05-16T20:57:08.898Z,96931.47
2023-05-16T20:59:37.350Z,96928.69
2023-05-16T21:02:05.713Z,96929.22
2023-05-16T21:04:32.255Z,96931.84
2023-05-16T21:06:58.974Z,96927.28
2023-05-16T21:09:26.534Z,96933.16
2023-05-16T21:11:53.100Z,96931.72
2023-05-16T21:14:19.569Z,96928.59
2023-05-16T21:16:46.268Z,96929.25
2023-05-16T21:19:12.832Z,96934.97
2023-05-16T21:21:39.445Z,96932.19
2023-05-16T21:24:06.263Z,96938.91
2023-05-16T21:26:32.819Z,96939.25
2023-05-16T21:28:59.379Z,96950.75
2023-05-16T21:31:26.278Z,96949.44
2023-05-16T21:33:53.007Z,96957.94
2023-05-16T21:36:20.811Z,96957.13
2023-05-16T21:38:47.705Z,96950.72
2023-05-16T21:41:14.586Z,96953.69
2023-05-16T21:43:41.387Z,96962.19
2023-05-16T21:46:07.913Z,96961.22
2023-05-16T21:48:34.576Z,96958.91
2023-05-16T21:51:01.277Z,96955.81
2023-05-16T21:53:27.833Z,96951.38
2023-05-16T21:55:54.384Z,96954.50
2023-05-16T21:58:22.129Z,96957.94
2023-05-16T22:00:49.609Z,96959.22
2023-05-16T22:03:19.168Z,96968.06
2023-05-16T22:05:48.746Z,96968.38
2023-05-16T22:08:15.608Z,96966.44
2023-05-16T22:10:43.295Z,96973.28
2023-05-16T22:13:10.314Z,96973.63
2023-05-16T22:15:38.019Z,96973.44
2023-05-16T22:18:05.195Z,96977.03
2023-05-16T22:20:32.774Z,96968.34
2023-05-16T22:22:59.329Z,96995.38
2023-05-16T22:25:27.033Z,96994.53
2023-05-16T22:27:53.763Z,96999.44
2023-05-16T22:30:20.314Z,96983.38
2023-05-16T22:32:47.132Z,97007.81
2023-05-16T22:35:14.234Z,97006.91
2023-05-16T22:37:40.756Z,97002.50
2023-05-16T22:40:08.203Z,97013.69
2023-05-16T22:42:34.758Z,97011.94
2023-05-16T22:45:01.306Z,97013.91
2023-05-16T22:47:28.862Z,97011.41
2023-05-16T22:49:55.603Z,97017.16
2023-05-16T22:52:22.256Z,97014.81
2023-05-16T22:54:48.762Z,97009.25
2023-05-16T22:57:15.321Z,97012.53
2023-05-16T22:59:41.916Z,97019.78
2023-05-16T23:02:08.473Z,97011.06
2023-05-16T23:04:34.984Z,97010.53
2023-05-16T23:07:01.645Z,97021.56
2023-05-16T23:09:28.131Z,97024.16
2023-05-16T23:11:54.684Z,97009.88
2023-05-16T23:14:21.188Z,97018.34
2023-05-16T23:16:48.014Z,97017.22
2023-05-16T23:19:15.576Z,97018.38
2023-05-16T23:21:42.147Z,97026.38
2023-05-16T23:24:08.797Z,97035.56
2023-05-16T23:26:35.356Z,97034.44
2023-05-16T23:29:02.008Z,97034.56
2023-05-16T23:31:28.551Z,97038.69
2023-05-16T23:33:55.037Z,97043.56
2023-05-16T23:36:21.805Z,97050.84
2023-05-16T23:38:48.318Z,97048.63
2023-05-16T23:41:14.924Z,97044.81
2023-05-16T23:43:41.422Z,97051.75
2023-05-16T23:46:07.935Z,97048.84
2023-05-16T23:48:36.628Z,97054.94
2023-05-16T23:51:07.339Z,97050.16
2023-05-16T23:53:34.883Z,97060.53
2023-05-16T23:56:01.423Z,97066.81
2023-05-16T23:58:27.949Z,97063.69
